deformed-offering
Saratoga-Weather Station Historical Data
 
Daily Summary for May 12, 2021 Units:  English    Metric   Both
Daily Weekly Monthly Yearly
  Current: High: Low: Average:
Temperature: 53.1 °F 59.9 °F 53.1 °F 56.3 °F
Dew Point: 46.4 °F 52 °F 46.4 °F 49.3 °F
Humidity: 78% 79% 75% 77%
Wind Speed: 0mph 0mph 0mph 0mph
Wind Gust: 0mph 0mph - -
WindCalm - - North
Pressure: 29.91 in 29.91 in 29.90 in -
Precipitation: 0.00 in      
 
 
Tabular Data for May 12, 2021
Time Temperature Dew Point Pressure Wind Wind Speed Wind Gust Humidity Rainfall Rate (Hourly) solar
00:04 59.9 °F 52 °F 29.91 in Calm     75% 0.00 in 0 W/m2
00:09 59.8 °F 51.9 °F 29.91 in Calm     75% 0.00 in 0 W/m2
00:14 59.6 °F 51.7 °F 29.91 in Calm     75% 0.00 in 0 W/m2
00:19 59.5 °F 51.6 °F 29.91 in Calm     75% 0.00 in 0 W/m2
00:24 59.3 °F 51.4 °F 29.90 in Calm     75% 0.00 in 0 W/m2
00:29 59.2 °F 51.3 °F 29.91 in Calm     75% 0.00 in 0 W/m2
00:34 59 °F 51.1 °F 29.91 in Calm     75.1% 0.00 in 0 W/m2
00:39 58.9 °F 51.3 °F 29.91 in Calm     76% 0.00 in 0 W/m2
00:44 58.7 °F 51.2 °F 29.91 in Calm     76% 0.00 in 0 W/m2
00:49 58.6 °F 51.1 °F 29.91 in Calm     76% 0.00 in 0 W/m2
00:54 58.4 °F 50.9 °F 29.91 in Calm     76% 0.00 in 0 W/m2
00:59 58.3 °F 50.8 °F 29.91 in Calm     76% 0.00 in 0 W/m2
01:04 58.1 °F 50.6 °F 29.91 in Calm     76% 0.00 in 0 W/m2
01:09 58 °F 50.5 °F 29.91 in Calm     76% 0.00 in 0 W/m2
01:14 57.8 °F 50.4 °F 29.91 in Calm     76.4% 0.00 in 0 W/m2
01:19 57.6 °F 50.4 °F 29.91 in Calm     77% 0.00 in 0 W/m2
01:24 57.5 °F 50.3 °F 29.91 in Calm     77% 0.00 in 0 W/m2
01:29 57.3 °F 50.1 °F 29.91 in Calm     77% 0.00 in 0 W/m2
01:34 57.1 °F 50 °F 29.91 in Calm     77% 0.00 in 0 W/m2
01:39 57 °F 49.9 °F 29.91 in Calm     77.1% 0.00 in 0 W/m2
01:44 56.9 °F 50.1 °F 29.91 in Calm     78% 0.00 in 0 W/m2
01:49 56.7 °F 49.9 °F 29.91 in Calm     78% 0.00 in 0 W/m2
01:54 56.6 °F 49.8 °F 29.91 in Calm     78% 0.00 in 0 W/m2
01:59 56.5 °F 49.7 °F 29.91 in Calm     78% 0.00 in 0 W/m2
02:04 56.4 °F 49.7 °F 29.91 in Calm     78.4% 0.00 in 0 W/m2
02:09 56.3 °F 49.9 °F 29.91 in Calm     79% 0.00 in 0 W/m2
02:14 56.2 °F 49.8 °F 29.91 in Calm     79% 0.00 in 0 W/m2
02:19 56 °F 49.6 °F 29.91 in Calm     79% 0.00 in 0 W/m2
02:24 55.9 °F 49.5 °F 29.91 in Calm     79% 0.00 in 0 W/m2
02:29 55.8 °F 49.4 °F 29.90 in Calm     79% 0.00 in 0 W/m2
02:34 55.7 °F 49.2 °F 29.90 in Calm     78.8% 0.00 in 0 W/m2
02:39 55.6 °F 48.9 °F 29.90 in Calm     78.4% 0.00 in 0 W/m2
02:44 55.4 °F 48.9 °F 29.90 in Calm     78.8% 0.00 in 0 W/m2
02:49 55.3 °F 48.6 °F 29.90 in Calm     78% 0.00 in 0 W/m2
02:54 55.1 °F 48.4 °F 29.90 in Calm     78% 0.00 in 0 W/m2
02:59 55 °F 48.3 °F 29.90 in Calm     78% 0.00 in 0 W/m2
03:04 54.8 °F 47.7 °F 29.91 in Calm     77.1% 0.00 in 0 W/m2
03:09 54.6 °F 47.6 °F 29.91 in Calm     77.1% 0.00 in 0 W/m2
03:14 54.5 °F 47.5 °F 29.91 in Calm     77.1% 0.00 in 0 W/m2
03:19 54.4 °F 47.7 °F 29.91 in Calm     78% 0.00 in 0 W/m2
03:24 54.3 °F 47.6 °F 29.91 in Calm     78% 0.00 in 0 W/m2
03:29 54.2 °F 47.5 °F 29.91 in Calm     78% 0.00 in 0 W/m2
03:34 54.1 °F 47.4 °F 29.91 in Calm     78% 0.00 in 0 W/m2
03:39 54.1 °F 47.4 °F 29.91 in Calm     78% 0.00 in 0 W/m2
03:44 54 °F 47.5 °F 29.91 in Calm     78.7% 0.00 in 0 W/m2
03:49 53.9 °F 47.5 °F 29.91 in Calm     79% 0.00 in 0 W/m2
03:54 53.8 °F 47.4 °F 29.91 in Calm     79% 0.00 in 0 W/m2
03:59 53.7 °F 47.3 °F 29.91 in Calm     79% 0.00 in 0 W/m2
04:04 53.6 °F 47.2 °F 29.91 in Calm     79% 0.00 in 0 W/m2
04:09 53.5 °F 47.1 °F 29.91 in Calm     79% 0.00 in 0 W/m2
04:14 53.3 °F 47 °F 29.91 in Calm     79% 0.00 in 0 W/m2
04:19 53.2 °F 46.7 °F 29.91 in Calm     78.4% 0.00 in 0 W/m2
04:24 53.1 °F 46.4 °F 29.91 in Calm     78% 0.00 in 0 W/m2
Saratoga, California, USA
Compliments of Weather Underground - 2 mb

WU-history PHP script courtesy of Juneau County Weather and modified for WU/TWC API use by Saratoga-weather.org

This script set is available on GitHub.

deformed-offering